sensor_id;sensor_type;location;lat;lon;timestamp;P1;durP1;ratioP1;P2;durP2;ratioP2
4616;SDS011;2321;42.704;23.384;2023-05-10T00:02:02;1.10;;;1.10;;
4616;SDS011;2321;42.704;23.384;2023-05-10T00:04:29;4.73;;;1.70;;
4616;SDS011;2321;42.704;23.384;2023-05-10T00:06:56;2.30;;;2.17;;
4616;SDS011;2321;42.704;23.384;2023-05-10T00:09:22;0.80;;;0.80;;
4616;SDS011;2321;42.704;23.384;2023-05-10T00:11:51;3.23;;;3.00;;
4616;SDS011;2321;42.704;23.384;2023-05-10T00:14:17;2.70;;;1.83;;
4616;SDS011;2321;42.704;23.384;2023-05-10T00:16:44;2.97;;;1.93;;
4616;SDS011;2321;42.704;23.384;2023-05-10T00:19:11;2.93;;;2.00;;
4616;SDS011;2321;42.704;23.384;2023-05-10T00:21:38;1.37;;;1.27;;
4616;SDS011;2321;42.704;23.384;2023-05-10T00:24:05;1.43;;;1.43;;
4616;SDS011;2321;42.704;23.384;2023-05-10T00:26:32;0.90;;;0.90;;
4616;SDS011;2321;42.704;23.384;2023-05-10T00:29:00;1.30;;;1.20;;
4616;SDS011;2321;42.704;23.384;2023-05-10T00:31:27;1.53;;;1.17;;
4616;SDS011;2321;42.704;23.384;2023-05-10T00:33:54;6.50;;;2.80;;
4616;SDS011;2321;42.704;23.384;2023-05-10T00:36:21;2.43;;;2.23;;
4616;SDS011;2321;42.704;23.384;2023-05-10T00:38:48;3.27;;;2.50;;
4616;SDS011;2321;42.704;23.384;2023-05-10T00:41:15;1.20;;;1.20;;
4616;SDS011;2321;42.704;23.384;2023-05-10T00:43:41;1.70;;;1.60;;
4616;SDS011;2321;42.704;23.384;2023-05-10T00:46:10;2.77;;;2.57;;
4616;SDS011;2321;42.704;23.384;2023-05-10T00:48:37;1.23;;;1.23;;
4616;SDS011;2321;42.704;23.384;2023-05-10T00:51:04;2.10;;;1.40;;
4616;SDS011;2321;42.704;23.384;2023-05-10T00:53:31;5.50;;;2.20;;
4616;SDS011;2321;42.704;23.384;2023-05-10T00:55:58;25.53;;;5.00;;
4616;SDS011;2321;42.704;23.384;2023-05-10T00:58:26;18.23;;;4.43;;
4616;SDS011;2321;42.704;23.384;2023-05-10T01:00:56;8.20;;;2.10;;
4616;SDS011;2321;42.704;23.384;2023-05-10T01:03:25;9.37;;;3.27;;
4616;SDS011;2321;42.704;23.384;2023-05-10T01:05:52;21.87;;;4.20;;
4616;SDS011;2321;42.704;23.384;2023-05-10T01:08:19;23.80;;;5.73;;
4616;SDS011;2321;42.704;23.384;2023-05-10T01:10:46;15.13;;;4.73;;
4616;SDS011;2321;42.704;23.384;2023-05-10T01:13:15;13.17;;;3.27;;
4616;SDS011;2321;42.704;23.384;2023-05-10T01:15:50;14.07;;;3.37;;
4616;SDS011;2321;42.704;23.384;2023-05-10T01:18:17;5.63;;;2.50;;
4616;SDS011;2321;42.704;23.384;2023-05-10T01:20:48;20.83;;;4.07;;
4616;SDS011;2321;42.704;23.384;2023-05-10T01:23:35;8.80;;;2.87;;
4616;SDS011;2321;42.704;23.384;2023-05-10T01:26:36;11.60;;;3.60;;
4616;SDS011;2321;42.704;23.384;2023-05-10T01:29:27;11.43;;;2.73;;
4616;SDS011;2321;42.704;23.384;2023-05-10T01:32:16;16.30;;;3.07;;
4616;SDS011;2321;42.704;23.384;2023-05-10T01:34:53;12.67;;;2.73;;
4616;SDS011;2321;42.704;23.384;2023-05-10T01:37:28;27.97;;;5.17;;
4616;SDS011;2321;42.704;23.384;2023-05-10T01:40:00;14.17;;;3.27;;
4616;SDS011;2321;42.704;23.384;2023-05-10T01:42:36;1.60;;;1.50;;
4616;SDS011;2321;42.704;23.384;2023-05-10T01:45:13;10.33;;;2.97;;
4616;SDS011;2321;42.704;23.384;2023-05-10T01:47:49;24.60;;;3.93;;
4616;SDS011;2321;42.704;23.384;2023-05-10T01:50:21;9.53;;;1.83;;
4616;SDS011;2321;42.704;23.384;2023-05-10T01:52:53;16.90;;;3.10;;
4616;SDS011;2321;42.704;23.384;2023-05-10T01:55:21;18.97;;;3.53;;
4616;SDS011;2321;42.704;23.384;2023-05-10T01:57:52;13.60;;;3.13;;
4616;SDS011;2321;42.704;23.384;2023-05-10T02:00:26;25.73;;;5.10;;
4616;SDS011;2321;42.704;23.384;2023-05-10T02:02:56;10.07;;;3.27;;
4616;SDS011;2321;42.704;23.384;2023-05-10T02:05:24;17.97;;;4.50;;
4616;SDS011;2321;42.704;23.384;2023-05-10T02:07:52;10.87;;;2.70;;
4616;SDS011;2321;42.704;23.384;2023-05-10T02:10:20;18.93;;;3.70;;
4616;SDS011;2321;42.704;23.384;2023-05-10T02:12:47;16.20;;;3.90;;
4616;SDS011;2321;42.704;23.384;2023-05-10T02:15:17;20.57;;;3.83;;
4616;SDS011;2321;42.704;23.384;2023-05-10T02:17:47;20.67;;;4.23;;
4616;SDS011;2321;42.704;23.384;2023-05-10T02:20:16;8.67;;;2.40;;
4616;SDS011;2321;42.704;23.384;2023-05-10T02:22:45;10.03;;;2.80;;
4616;SDS011;2321;42.704;23.384;2023-05-10T02:25:15;16.30;;;3.97;;
4616;SDS011;2321;42.704;23.384;2023-05-10T02:27:42;20.23;;;3.60;;
4616;SDS011;2321;42.704;23.384;2023-05-10T02:30:10;23.40;;;4.20;;
4616;SDS011;2321;42.704;23.384;2023-05-10T02:32:39;15.70;;;3.00;;
4616;SDS011;2321;42.704;23.384;2023-05-10T02:35:07;20.37;;;3.27;;
4616;SDS011;2321;42.704;23.384;2023-05-10T02:37:37;21.20;;;4.17;;
4616;SDS011;2321;42.704;23.384;2023-05-10T02:40:06;21.13;;;4.27;;
4616;SDS011;2321;42.704;23.384;2023-05-10T02:42:36;16.00;;;3.20;;
4616;SDS011;2321;42.704;23.384;2023-05-10T02:45:07;14.37;;;3.17;;
4616;SDS011;2321;42.704;23.384;2023-05-10T02:47:37;16.30;;;3.23;;
4616;SDS011;2321;42.704;23.384;2023-05-10T02:50:04;16.60;;;3.40;;
4616;SDS011;2321;42.704;23.384;2023-05-10T02:52:36;13.57;;;2.60;;
4616;SDS011;2321;42.704;23.384;2023-05-10T02:55:09;14.93;;;3.13;;
4616;SDS011;2321;42.704;23.384;2023-05-10T02:57:40;22.50;;;4.37;;
4616;SDS011;2321;42.704;23.384;2023-05-10T03:00:09;24.53;;;4.80;;
4616;SDS011;2321;42.704;23.384;2023-05-10T03:02:37;24.37;;;4.13;;
4616;SDS011;2321;42.704;23.384;2023-05-10T03:05:04;20.20;;;4.10;;
4616;SDS011;2321;42.704;23.384;2023-05-10T03:07:31;20.03;;;3.87;;
4616;SDS011;2321;42.704;23.384;2023-05-10T03:10:00;20.00;;;4.97;;
4616;SDS011;2321;42.704;23.384;2023-05-10T03:12:31;9.43;;;2.20;;
4616;SDS011;2321;42.704;23.384;2023-05-10T03:15:07;18.13;;;3.90;;
4616;SDS011;2321;42.704;23.384;2023-05-10T03:17:41;17.37;;;3.23;;
4616;SDS011;2321;42.704;23.384;2023-05-10T03:20:16;20.57;;;3.93;;
4616;SDS011;2321;42.704;23.384;2023-05-10T03:22:50;17.00;;;3.50;;
4616;SDS011;2321;42.704;23.384;2023-05-10T03:25:21;26.73;;;4.97;;
4616;SDS011;2321;42.704;23.384;2023-05-10T03:27:49;17.13;;;2.90;;
4616;SDS011;2321;42.704;23.384;2023-05-10T03:30:18;16.07;;;3.40;;
4616;SDS011;2321;42.704;23.384;2023-05-10T03:32:46;10.47;;;2.33;;
4616;SDS011;2321;42.704;23.384;2023-05-10T03:35:13;14.47;;;3.40;;
4616;SDS011;2321;42.704;23.384;2023-05-10T03:37:40;14.07;;;3.33;;
4616;SDS011;2321;42.704;23.384;2023-05-10T03:40:07;15.20;;;2.70;;
4616;SDS011;2321;42.704;23.384;2023-05-10T03:42:36;14.43;;;2.97;;
4616;SDS011;2321;42.704;23.384;2023-05-10T03:45:03;23.00;;;4.00;;
4616;SDS011;2321;42.704;23.384;2023-05-10T03:47:31;16.97;;;3.00;;
4616;SDS011;2321;42.704;23.384;2023-05-10T03:49:57;15.67;;;3.27;;
4616;SDS011;2321;42.704;23.384;2023-05-10T03:52:24;18.43;;;4.00;;
4616;SDS011;2321;42.704;23.384;2023-05-10T03:54:51;26.33;;;4.10;;
4616;SDS011;2321;42.704;23.384;2023-05-10T03:57:18;23.77;;;4.43;;
4616;SDS011;2321;42.704;23.384;2023-05-10T03:59:46;22.73;;;4.50;;
4616;SDS011;2321;42.704;23.384;2023-05-10T04:02:13;21.40;;;5.30;;
4616;SDS011;2321;42.704;23.384;2023-05-10T04:04:40;22.10;;;4.20;;
4616;SDS011;2321;42.704;23.384;2023-05-10T04:07:07;11.60;;;2.70;;
4616;SDS011;2321;42.704;23.384;2023-05-10T04:09:35;16.00;;;2.90;;
4616;SDS011;2321;42.704;23.384;2023-05-10T04:12:02;17.47;;;3.13;;
4616;SDS011;2321;42.704;23.384;2023-05-10T04:14:29;12.30;;;2.57;;
4616;SDS011;2321;42.704;23.384;2023-05-10T04:16:57;23.47;;;4.80;;
4616;SDS011;2321;42.704;23.384;2023-05-10T04:19:28;21.03;;;3.57;;
4616;SDS011;2321;42.704;23.384;2023-05-10T04:21:55;23.70;;;4.27;;
4616;SDS011;2321;42.704;23.384;2023-05-10T04:24:22;20.67;;;4.20;;
4616;SDS011;2321;42.704;23.384;2023-05-10T04:26:49;34.27;;;6.83;;
4616;SDS011;2321;42.704;23.384;2023-05-10T04:29:16;31.57;;;4.67;;
4616;SDS011;2321;42.704;23.384;2023-05-10T04:31:43;25.57;;;4.40;;
4616;SDS011;2321;42.704;23.384;2023-05-10T04:34:11;37.77;;;5.70;;
4616;SDS011;2321;42.704;23.384;2023-05-10T04:36:38;28.90;;;4.83;;
4616;SDS011;2321;42.704;23.384;2023-05-10T04:39:04;39.23;;;5.73;;
4616;SDS011;2321;42.704;23.384;2023-05-10T04:41:31;22.60;;;4.40;;
4616;SDS011;2321;42.704;23.384;2023-05-10T04:43:58;20.50;;;3.90;;
4616;SDS011;2321;42.704;23.384;2023-05-10T04:46:25;22.93;;;4.77;;
4616;SDS011;2321;42.704;23.384;2023-05-10T04:48:52;22.80;;;3.87;;
4616;SDS011;2321;42.704;23.384;2023-05-10T04:51:20;27.33;;;4.63;;
4616;SDS011;2321;42.704;23.384;2023-05-10T04:53:47;24.03;;;4.73;;
4616;SDS011;2321;42.704;23.384;2023-05-10T04:56:14;24.80;;;4.03;;
4616;SDS011;2321;42.704;23.384;2023-05-10T04:58:41;39.57;;;5.53;;
4616;SDS011;2321;42.704;23.384;2023-05-10T05:01:08;30.57;;;3.90;;
4616;SDS011;2321;42.704;23.384;2023-05-10T05:03:35;37.53;;;5.80;;
4616;SDS011;2321;42.704;23.384;2023-05-10T05:06:03;32.73;;;5.47;;
4616;SDS011;2321;42.704;23.384;2023-05-10T05:08:32;35.77;;;5.23;;
4616;SDS011;2321;42.704;23.384;2023-05-10T05:10:58;28.30;;;5.00;;
4616;SDS011;2321;42.704;23.384;2023-05-10T05:13:25;13.80;;;3.87;;
4616;SDS011;2321;42.704;23.384;2023-05-10T05:15:52;22.70;;;5.07;;
4616;SDS011;2321;42.704;23.384;2023-05-10T05:18:19;27.17;;;4.77;;
4616;SDS011;2321;42.704;23.384;2023-05-10T05:20:46;49.33;;;7.00;;
4616;SDS011;2321;42.704;23.384;2023-05-10T05:23:13;21.67;;;4.40;;
4616;SDS011;2321;42.704;23.384;2023-05-10T05:25:41;31.13;;;5.70;;
4616;SDS011;2321;42.704;23.384;2023-05-10T05:28:08;21.77;;;3.87;;
4616;SDS011;2321;42.704;23.384;2023-05-10T05:30:35;31.33;;;4.43;;
4616;SDS011;2321;42.704;23.384;2023-05-10T05:33:02;13.07;;;3.13;;
4616;SDS011;2321;42.704;23.384;2023-05-10T05:35:29;19.40;;;3.43;;
4616;SDS011;2321;42.704;23.384;2023-05-10T05:37:56;20.03;;;3.30;;
4616;SDS011;2321;42.704;23.384;2023-05-10T05:40:22;19.97;;;3.93;;
4616;SDS011;2321;42.704;23.384;2023-05-10T05:42:51;35.53;;;6.20;;
4616;SDS011;2321;42.704;23.384;2023-05-10T05:45:18;21.30;;;3.60;;
4616;SDS011;2321;42.704;23.384;2023-05-10T05:47:45;24.37;;;4.33;;
4616;SDS011;2321;42.704;23.384;2023-05-10T05:50:12;28.87;;;5.27;;
4616;SDS011;2321;42.704;23.384;2023-05-10T05:52:39;20.30;;;4.47;;
4616;SDS011;2321;42.704;23.384;2023-05-10T05:55:06;20.50;;;4.20;;
4616;SDS011;2321;42.704;23.384;2023-05-10T05:57:33;10.77;;;2.77;;
4616;SDS011;2321;42.704;23.384;2023-05-10T06:00:01;40.40;;;6.47;;
4616;SDS011;2321;42.704;23.384;2023-05-10T06:02:29;11.57;;;2.77;;
4616;SDS011;2321;42.704;23.384;2023-05-10T06:04:56;24.43;;;4.93;;
4616;SDS011;2321;42.704;23.384;2023-05-10T06:07:22;21.27;;;3.53;;
4616;SDS011;2321;42.704;23.384;2023-05-10T06:09:50;17.50;;;3.10;;
4616;SDS011;2321;42.704;23.384;2023-05-10T06:12:17;31.63;;;5.07;;
4616;SDS011;2321;42.704;23.384;2023-05-10T06:14:44;15.40;;;2.70;;
4616;SDS011;2321;42.704;23.384;2023-05-10T06:17:21;18.87;;;3.90;;
4616;SDS011;2321;42.704;23.384;2023-05-10T06:19:50;19.83;;;3.70;;
4616;SDS011;2321;42.704;23.384;2023-05-10T06:22:17;12.43;;;3.33;;
4616;SDS011;2321;42.704;23.384;2023-05-10T06:24:44;16.47;;;3.00;;
4616;SDS011;2321;42.704;23.384;2023-05-10T06:27:11;21.67;;;4.70;;
4616;SDS011;2321;42.704;23.384;2023-05-10T06:29:38;13.13;;;2.73;;
4616;SDS011;2321;42.704;23.384;2023-05-10T06:32:05;25.33;;;4.33;;
4616;SDS011;2321;42.704;23.384;2023-05-10T06:34:33;14.43;;;3.43;;
4616;SDS011;2321;42.704;23.384;2023-05-10T06:37:00;39.53;;;6.53;;
4616;SDS011;2321;42.704;23.384;2023-05-10T06:39:28;27.27;;;4.63;;
4616;SDS011;2321;42.704;23.384;2023-05-10T06:41:55;13.60;;;4.23;;
4616;SDS011;2321;42.704;23.384;2023-05-10T06:44:22;12.27;;;2.60;;
4616;SDS011;2321;42.704;23.384;2023-05-10T06:46:49;8.70;;;2.77;;
4616;SDS011;2321;42.704;23.384;2023-05-10T06:49:17;15.67;;;2.83;;
4616;SDS011;2321;42.704;23.384;2023-05-10T06:51:45;8.23;;;2.93;;
4616;SDS011;2321;42.704;23.384;2023-05-10T06:54:13;14.00;;;3.40;;
4616;SDS011;2321;42.704;23.384;2023-05-10T06:56:40;18.37;;;3.90;;
4616;SDS011;2321;42.704;23.384;2023-05-10T06:59:07;16.77;;;3.13;;
4616;SDS011;2321;42.704;23.384;2023-05-10T07:01:33;13.27;;;2.97;;
4616;SDS011;2321;42.704;23.384;2023-05-10T07:04:00;22.63;;;4.23;;
4616;SDS011;2321;42.704;23.384;2023-05-10T07:06:27;14.47;;;2.73;;
4616;SDS011;2321;42.704;23.384;2023-05-10T07:08:56;10.20;;;2.30;;
4616;SDS011;2321;42.704;23.384;2023-05-10T07:11:23;13.80;;;3.40;;
4616;SDS011;2321;42.704;23.384;2023-05-10T07:13:49;16.23;;;4.27;;
4616;SDS011;2321;42.704;23.384;2023-05-10T07:16:16;15.37;;;3.20;;
4616;SDS011;2321;42.704;23.384;2023-05-10T07:18:43;14.80;;;2.83;;
4616;SDS011;2321;42.704;23.384;2023-05-10T07:21:10;14.77;;;3.00;;
4616;SDS011;2321;42.704;23.384;2023-05-10T07:23:37;12.33;;;3.33;;
4616;SDS011;2321;42.704;23.384;2023-05-10T07:26:05;15.30;;;3.67;;
4616;SDS011;2321;42.704;23.384;2023-05-10T07:28:32;18.60;;;5.43;;
4616;SDS011;2321;42.704;23.384;2023-05-10T07:30:59;11.80;;;3.77;;
4616;SDS011;2321;42.704;23.384;2023-05-10T07:33:26;14.67;;;3.40;;
4616;SDS011;2321;42.704;23.384;2023-05-10T07:35:52;22.27;;;4.97;;
4616;SDS011;2321;42.704;23.384;2023-05-10T07:38:19;17.10;;;3.90;;
4616;SDS011;2321;42.704;23.384;2023-05-10T07:40:46;12.83;;;3.83;;
4616;SDS011;2321;42.704;23.384;2023-05-10T07:43:15;16.77;;;4.50;;
4616;SDS011;2321;42.704;23.384;2023-05-10T07:45:42;28.53;;;5.03;;
4616;SDS011;2321;42.704;23.384;2023-05-10T07:48:09;13.67;;;3.27;;
4616;SDS011;2321;42.704;23.384;2023-05-10T07:50:36;22.40;;;5.00;;
4616;SDS011;2321;42.704;23.384;2023-05-10T07:53:03;14.53;;;3.90;;
4616;SDS011;2321;42.704;23.384;2023-05-10T07:55:29;15.93;;;3.97;;
4616;SDS011;2321;42.704;23.384;2023-05-10T07:57:56;13.27;;;3.37;;
4616;SDS011;2321;42.704;23.384;2023-05-10T08:00:27;9.03;;;2.47;;
4616;SDS011;2321;42.704;23.384;2023-05-10T08:02:54;12.40;;;2.57;;
4616;SDS011;2321;42.704;23.384;2023-05-10T08:05:21;11.50;;;3.30;;
4616;SDS011;2321;42.704;23.384;2023-05-10T08:07:48;8.37;;;2.30;;
4616;SDS011;2321;42.704;23.384;2023-05-10T08:10:15;12.27;;;3.80;;
4616;SDS011;2321;42.704;23.384;2023-05-10T08:12:42;12.50;;;4.13;;
4616;SDS011;2321;42.704;23.384;2023-05-10T08:15:09;12.20;;;3.93;;
4616;SDS011;2321;42.704;23.384;2023-05-10T08:17:38;13.27;;;3.73;;
4616;SDS011;2321;42.704;23.384;2023-05-10T08:20:05;27.27;;;5.60;;
4616;SDS011;2321;42.704;23.384;2023-05-10T08:22:32;24.80;;;4.27;;
4616;SDS011;2321;42.704;23.384;2023-05-10T08:24:59;14.93;;;4.80;;
4616;SDS011;2321;42.704;23.384;2023-05-10T08:27:26;19.33;;;4.10;;
4616;SDS011;2321;42.704;23.384;2023-05-10T08:29:53;14.57;;;3.70;;
4616;SDS011;2321;42.704;23.384;2023-05-10T08:32:20;14.87;;;3.70;;
4616;SDS011;2321;42.704;23.384;2023-05-10T08:34:48;7.87;;;2.80;;
4616;SDS011;2321;42.704;23.384;2023-05-10T08:37:15;15.40;;;3.43;;
4616;SDS011;2321;42.704;23.384;2023-05-10T08:39:42;12.80;;;2.67;;
4616;SDS011;2321;42.704;23.384;2023-05-10T08:42:09;10.70;;;2.70;;
4616;SDS011;2321;42.704;23.384;2023-05-10T08:44:36;13.57;;;3.17;;
4616;SDS011;2321;42.704;23.384;2023-05-10T08:47:04;16.83;;;3.47;;
4616;SDS011;2321;42.704;23.384;2023-05-10T08:49:32;12.13;;;2.77;;
4616;SDS011;2321;42.704;23.384;2023-05-10T08:52:01;15.77;;;4.00;;
4616;SDS011;2321;42.704;23.384;2023-05-10T08:54:31;11.77;;;3.00;;
4616;SDS011;2321;42.704;23.384;2023-05-10T08:56:59;17.20;;;3.70;;
4616;SDS011;2321;42.704;23.384;2023-05-10T08:59:26;11.17;;;3.33;;
4616;SDS011;2321;42.704;23.384;2023-05-10T09:01:54;10.97;;;3.57;;
4616;SDS011;2321;42.704;23.384;2023-05-10T09:04:23;11.00;;;3.93;;
4616;SDS011;2321;42.704;23.384;2023-05-10T09:06:50;13.30;;;3.27;;
4616;SDS011;2321;42.704;23.384;2023-05-10T09:09:19;17.47;;;4.03;;
4616;SDS011;2321;42.704;23.384;2023-05-10T09:11:47;11.60;;;3.90;;
4616;SDS011;2321;42.704;23.384;2023-05-10T09:14:14;8.13;;;2.30;;
4616;SDS011;2321;42.704;23.384;2023-05-10T09:16:42;11.27;;;3.27;;
4616;SDS011;2321;42.704;23.384;2023-05-10T09:19:09;11.17;;;2.80;;
4616;SDS011;2321;42.704;23.384;2023-05-10T09:21:36;13.73;;;3.93;;
4616;SDS011;2321;42.704;23.384;2023-05-10T09:24:04;22.70;;;5.17;;
4616;SDS011;2321;42.704;23.384;2023-05-10T09:26:33;26.87;;;4.13;;
4616;SDS011;2321;42.704;23.384;2023-05-10T09:29:00;18.57;;;3.67;;
4616;SDS011;2321;42.704;23.384;2023-05-10T09:31:44;13.83;;;4.00;;
4616;SDS011;2321;42.704;23.384;2023-05-10T09:34:15;30.70;;;7.13;;
4616;SDS011;2321;42.704;23.384;2023-05-10T09:36:52;15.47;;;3.87;;
4616;SDS011;2321;42.704;23.384;2023-05-10T09:39:20;6.90;;;3.20;;
4616;SDS011;2321;42.704;23.384;2023-05-10T09:41:48;9.60;;;2.80;;
4616;SDS011;2321;42.704;23.384;2023-05-10T09:44:16;14.53;;;4.00;;
4616;SDS011;2321;42.704;23.384;2023-05-10T09:46:48;11.47;;;3.87;;
4616;SDS011;2321;42.704;23.384;2023-05-10T09:49:15;15.57;;;3.73;;
4616;SDS011;2321;42.704;23.384;2023-05-10T09:51:42;19.10;;;3.27;;
4616;SDS011;2321;42.704;23.384;2023-05-10T09:54:10;19.93;;;4.23;;
4616;SDS011;2321;42.704;23.384;2023-05-10T09:56:38;11.47;;;3.50;;
4616;SDS011;2321;42.704;23.384;2023-05-10T09:59:07;14.97;;;3.47;;
4616;SDS011;2321;42.704;23.384;2023-05-10T10:01:35;16.10;;;3.33;;
4616;SDS011;2321;42.704;23.384;2023-05-10T10:04:03;11.50;;;3.50;;
4616;SDS011;2321;42.704;23.384;2023-05-10T10:06:35;18.33;;;3.70;;
4616;SDS011;2321;42.704;23.384;2023-05-10T10:09:03;32.67;;;5.57;;
4616;SDS011;2321;42.704;23.384;2023-05-10T10:11:30;22.13;;;4.70;;
4616;SDS011;2321;42.704;23.384;2023-05-10T10:13:57;25.87;;;5.27;;
4616;SDS011;2321;42.704;23.384;2023-05-10T10:16:26;24.97;;;5.27;;
4616;SDS011;2321;42.704;23.384;2023-05-10T10:18:55;44.73;;;7.83;;
4616;SDS011;2321;42.704;23.384;2023-05-10T10:21:22;11.00;;;2.73;;
4616;SDS011;2321;42.704;23.384;2023-05-10T10:23:49;50.23;;;8.47;;
4616;SDS011;2321;42.704;23.384;2023-05-10T10:26:16;40.33;;;7.17;;
4616;SDS011;2321;42.704;23.384;2023-05-10T10:28:47;37.30;;;6.20;;
4616;SDS011;2321;42.704;23.384;2023-05-10T10:31:23;25.30;;;4.50;;
4616;SDS011;2321;42.704;23.384;2023-05-10T10:34:00;28.83;;;5.80;;
4616;SDS011;2321;42.704;23.384;2023-05-10T10:36:29;19.83;;;4.00;;
4616;SDS011;2321;42.704;23.384;2023-05-10T10:38:59;13.13;;;3.43;;
4616;SDS011;2321;42.704;23.384;2023-05-10T10:41:28;17.40;;;3.73;;
4616;SDS011;2321;42.704;23.384;2023-05-10T10:50:05;14.27;;;3.57;;
4616;SDS011;2321;42.704;23.384;2023-05-10T10:52:33;14.60;;;3.77;;
4616;SDS011;2321;42.704;23.384;2023-05-10T10:55:02;16.83;;;3.57;;
4616;SDS011;2321;42.704;23.384;2023-05-10T10:57:42;14.67;;;4.23;;
4616;SDS011;2321;42.704;23.384;2023-05-10T11:00:18;14.37;;;3.67;;
4616;SDS011;2321;42.704;23.384;2023-05-10T11:02:49;13.00;;;3.33;;
4616;SDS011;2321;42.704;23.384;2023-05-10T11:05:23;15.37;;;3.70;;
4616;SDS011;2321;42.704;23.384;2023-05-10T11:07:51;12.73;;;2.87;;
4616;SDS011;2321;42.704;23.384;2023-05-10T11:10:19;11.27;;;2.63;;
4616;SDS011;2321;42.704;23.384;2023-05-10T11:12:53;11.73;;;3.70;;
4616;SDS011;2321;42.704;23.384;2023-05-10T11:15:30;36.57;;;7.30;;
4616;SDS011;2321;42.704;23.384;2023-05-10T11:17:58;19.87;;;4.60;;
4616;SDS011;2321;42.704;23.384;2023-05-10T11:20:27;15.00;;;4.20;;
4616;SDS011;2321;42.704;23.384;2023-05-10T11:22:59;13.33;;;3.73;;
4616;SDS011;2321;42.704;23.384;2023-05-10T11:25:41;17.10;;;5.10;;
4616;SDS011;2321;42.704;23.384;2023-05-10T11:28:09;10.07;;;3.17;;
4616;SDS011;2321;42.704;23.384;2023-05-10T11:30:37;19.30;;;5.27;;
4616;SDS011;2321;42.704;23.384;2023-05-10T11:33:07;26.73;;;5.97;;
4616;SDS011;2321;42.704;23.384;2023-05-10T11:35:37;9.60;;;3.87;;
4616;SDS011;2321;42.704;23.384;2023-05-10T11:38:05;28.27;;;6.60;;
4616;SDS011;2321;42.704;23.384;2023-05-10T11:40:33;13.60;;;5.43;;
4616;SDS011;2321;42.704;23.384;2023-05-10T11:43:00;15.77;;;6.13;;
4616;SDS011;2321;42.704;23.384;2023-05-10T11:45:27;15.47;;;7.00;;
4616;SDS011;2321;42.704;23.384;2023-05-10T11:47:56;13.70;;;5.73;;
4616;SDS011;2321;42.704;23.384;2023-05-10T11:50:26;15.57;;;6.03;;
4616;SDS011;2321;42.704;23.384;2023-05-10T11:52:53;15.67;;;4.80;;
4616;SDS011;2321;42.704;23.384;2023-05-10T11:55:21;18.10;;;6.37;;
4616;SDS011;2321;42.704;23.384;2023-05-10T11:57:51;13.87;;;6.37;;
4616;SDS011;2321;42.704;23.384;2023-05-10T12:00:18;18.00;;;8.13;;
4616;SDS011;2321;42.704;23.384;2023-05-10T12:02:46;16.77;;;6.30;;
4616;SDS011;2321;42.704;23.384;2023-05-10T12:05:13;13.93;;;4.30;;
4616;SDS011;2321;42.704;23.384;2023-05-10T12:07:42;21.27;;;4.40;;
4616;SDS011;2321;42.704;23.384;2023-05-10T12:10:09;13.17;;;3.53;;
4616;SDS011;2321;42.704;23.384;2023-05-10T12:12:39;11.57;;;4.23;;
4616;SDS011;2321;42.704;23.384;2023-05-10T12:15:11;26.50;;;6.27;;
4616;SDS011;2321;42.704;23.384;2023-05-10T12:17:43;45.03;;;5.77;;
4616;SDS011;2321;42.704;23.384;2023-05-10T12:20:14;18.43;;;6.30;;
4616;SDS011;2321;42.704;23.384;2023-05-10T12:22:48;28.47;;;8.07;;
4616;SDS011;2321;42.704;23.384;2023-05-10T12:25:17;13.60;;;3.60;;
4616;SDS011;2321;42.704;23.384;2023-05-10T12:27:48;24.20;;;5.87;;
4616;SDS011;2321;42.704;23.384;2023-05-10T12:30:20;17.90;;;6.93;;
4616;SDS011;2321;42.704;23.384;2023-05-10T12:32:48;14.83;;;8.20;;
4616;SDS011;2321;42.704;23.384;2023-05-10T12:35:15;14.20;;;6.60;;
4616;SDS011;2321;42.704;23.384;2023-05-10T12:37:45;15.63;;;7.60;;
4616;SDS011;2321;42.704;23.384;2023-05-10T12:40:14;19.97;;;9.60;;
4616;SDS011;2321;42.704;23.384;2023-05-10T12:42:41;14.63;;;4.73;;
4616;SDS011;2321;42.704;23.384;2023-05-10T12:45:10;25.43;;;10.07;;
4616;SDS011;2321;42.704;23.384;2023-05-10T12:47:37;18.20;;;11.73;;
4616;SDS011;2321;42.704;23.384;2023-05-10T12:50:04;13.43;;;8.00;;
4616;SDS011;2321;42.704;23.384;2023-05-10T12:52:32;18.83;;;10.67;;
4616;SDS011;2321;42.704;23.384;2023-05-10T12:55:00;20.10;;;9.50;;
4616;SDS011;2321;42.704;23.384;2023-05-10T12:57:28;16.37;;;4.77;;
4616;SDS011;2321;42.704;23.384;2023-05-10T12:59:55;14.80;;;4.40;;
4616;SDS011;2321;42.704;23.384;2023-05-10T13:02:22;12.90;;;4.43;;
4616;SDS011;2321;42.704;23.384;2023-05-10T13:04:49;14.60;;;4.87;;
4616;SDS011;2321;42.704;23.384;2023-05-10T13:07:16;19.20;;;5.43;;
4616;SDS011;2321;42.704;23.384;2023-05-10T13:09:43;16.53;;;7.30;;
4616;SDS011;2321;42.704;23.384;2023-05-10T13:12:11;12.47;;;4.63;;
4616;SDS011;2321;42.704;23.384;2023-05-10T13:14:38;14.17;;;5.27;;
4616;SDS011;2321;42.704;23.384;2023-05-10T13:17:06;24.50;;;7.40;;
4616;SDS011;2321;42.704;23.384;2023-05-10T13:19:33;16.63;;;5.57;;
4616;SDS011;2321;42.704;23.384;2023-05-10T13:22:00;17.63;;;6.57;;
4616;SDS011;2321;42.704;23.384;2023-05-10T13:24:27;21.87;;;6.57;;
4616;SDS011;2321;42.704;23.384;2023-05-10T13:26:54;16.60;;;7.37;;
4616;SDS011;2321;42.704;23.384;2023-05-10T13:29:22;44.20;;;9.90;;
4616;SDS011;2321;42.704;23.384;2023-05-10T13:31:49;19.50;;;8.57;;
4616;SDS011;2321;42.704;23.384;2023-05-10T13:34:16;15.13;;;6.87;;
4616;SDS011;2321;42.704;23.384;2023-05-10T13:36:45;50.87;;;7.57;;
4616;SDS011;2321;42.704;23.384;2023-05-10T13:39:12;25.13;;;16.00;;
4616;SDS011;2321;42.704;23.384;2023-05-10T13:41:39;14.67;;;9.30;;
4616;SDS011;2321;42.704;23.384;2023-05-10T13:44:06;11.40;;;7.33;;
4616;SDS011;2321;42.704;23.384;2023-05-10T13:46:34;23.10;;;15.47;;
4616;SDS011;2321;42.704;23.384;2023-05-10T13:49:02;24.20;;;10.07;;
4616;SDS011;2321;42.704;23.384;2023-05-10T13:51:29;12.67;;;6.40;;
4616;SDS011;2321;42.704;23.384;2023-05-10T13:53:57;10.63;;;5.03;;
4616;SDS011;2321;42.704;23.384;2023-05-10T13:56:39;16.23;;;12.23;;
4616;SDS011;2321;42.704;23.384;2023-05-10T13:59:06;22.97;;;15.00;;
4616;SDS011;2321;42.704;23.384;2023-05-10T14:01:35;15.37;;;8.33;;
4616;SDS011;2321;42.704;23.384;2023-05-10T14:04:02;21.33;;;13.33;;
4616;SDS011;2321;42.704;23.384;2023-05-10T14:06:29;20.07;;;13.27;;
4616;SDS011;2321;42.704;23.384;2023-05-10T14:08:56;20.50;;;15.03;;
4616;SDS011;2321;42.704;23.384;2023-05-10T14:11:23;27.27;;;22.60;;
4616;SDS011;2321;42.704;23.384;2023-05-10T14:13:50;98.10;;;88.80;;
4616;SDS011;2321;42.704;23.384;2023-05-10T14:16:17;249.00;;;226.00;;
4616;SDS011;2321;42.704;23.384;2023-05-10T14:18:45;267.80;;;241.73;;
4616;SDS011;2321;42.704;23.384;2023-05-10T14:21:12;262.97;;;237.70;;
4616;SDS011;2321;42.704;23.384;2023-05-10T14:23:40;292.83;;;263.47;;
4616;SDS011;2321;42.704;23.384;2023-05-10T14:26:07;212.33;;;190.27;;
4616;SDS011;2321;42.704;23.384;2023-05-10T14:28:34;226.40;;;199.30;;
4616;SDS011;2321;42.704;23.384;2023-05-10T14:31:01;185.77;;;166.03;;
4616;SDS011;2321;42.704;23.384;2023-05-10T14:33:28;198.80;;;175.50;;
4616;SDS011;2321;42.704;23.384;2023-05-10T14:35:56;215.60;;;194.97;;
4616;SDS011;2321;42.704;23.384;2023-05-10T14:38:23;219.20;;;197.40;;
4616;SDS011;2321;42.704;23.384;2023-05-10T14:40:50;265.93;;;240.50;;
4616;SDS011;2321;42.704;23.384;2023-05-10T14:43:16;260.60;;;234.83;;
4616;SDS011;2321;42.704;23.384;2023-05-10T14:45:43;218.23;;;195.50;;
4616;SDS011;2321;42.704;23.384;2023-05-10T14:48:11;248.67;;;224.03;;
4616;SDS011;2321;42.704;23.384;2023-05-10T14:50:40;250.20;;;225.00;;
4616;SDS011;2321;42.704;23.384;2023-05-10T14:56:03;268.53;;;239.87;;
4616;SDS011;2321;42.704;23.384;2023-05-10T14:58:30;283.47;;;252.73;;
4616;SDS011;2321;42.704;23.384;2023-05-10T15:00:57;303.57;;;272.23;;
4616;SDS011;2321;42.704;23.384;2023-05-10T15:03:24;303.37;;;269.70;;